Time;durP1;ratioP1;P1;durP2;ratioP2;P2;SDS_P1;SDS_P2;PMS_P1;PMS_P2;Temp;Humidity;BMP_temperature;BMP_pressure;BME280_temperature;BME280_humidity;BME280_pressure;Samples;Min_cycle;Max_cycle;Signal;HPM_P1;HPM_P2
2022/01/08 00:00:26;;;;;;;1.42;1.00;;;;;;;0.97;100.00;98629.34;5093023;28;20511;-79
2022/01/08 00:02:54;;;;;;;3.85;0.98;;;;;;;0.92;100.00;98621.75;5107343;28;20048;-79
2022/01/08 00:05:23;;;;;;;1.30;0.98;;;;;;;0.96;100.00;98608.91;5104644;27;20052;-79
2022/01/08 00:07:50;;;;;;;2.53;1.00;;;;;;;0.98;100.00;98604.25;5107163;28;20152;-78
2022/01/08 00:10:17;;;;;;;1.15;0.90;;;;;;;1.08;100.00;98609.66;5096168;28;20073;-79
2022/01/08 00:12:44;;;;;;;2.05;1.13;;;;;;;1.10;100.00;98588.94;5107086;28;20058;-79
2022/01/08 00:15:11;;;;;;;2.80;1.20;;;;;;;1.12;100.00;98576.28;5107817;28;20050;-79
2022/01/08 00:17:38;;;;;;;1.52;1.13;;;;;;;1.04;100.00;98572.44;5111370;28;20047;-79
2022/01/08 00:20:07;;;;;;;2.83;1.10;;;;;;;1.08;100.00;98581.03;5102909;28;20048;-79
2022/01/08 00:22:35;;;;;;;1.42;1.00;;;;;;;1.04;100.00;98561.75;5098956;28;20051;-79
2022/01/08 00:25:02;;;;;;;1.00;0.82;;;;;;;1.01;100.00;98550.44;5093110;28;20048;-79
2022/01/08 00:27:29;;;;;;;2.75;1.02;;;;;;;1.05;100.00;98541.16;5095707;28;20131;-79
2022/01/08 00:29:56;;;;;;;1.20;1.10;;;;;;;1.01;100.00;98537.06;5098071;28;20536;-79
2022/01/08 00:32:23;;;;;;;0.88;0.88;;;;;;;1.10;100.00;98541.63;5109138;28;20054;-78
2022/01/08 00:34:50;;;;;;;3.22;0.90;;;;;;;0.97;100.00;98531.16;5091904;28;20046;-79
2022/01/08 00:37:17;;;;;;;0.70;0.70;;;;;;;0.99;100.00;98518.47;5092151;28;20047;-78
2022/01/08 00:39:47;;;;;;;1.08;0.98;;;;;;;1.04;100.00;98529.63;5093137;28;20047;-79
2022/01/08 00:42:14;;;;;;;2.65;1.00;;;;;;;1.03;100.00;98522.56;5094033;28;21818;-79
2022/01/08 00:44:41;;;;;;;2.15;1.10;;;;;;;1.10;100.00;98517.50;5100513;28;20044;-78
2022/01/08 00:47:08;;;;;;;3.38;1.30;;;;;;;1.12;100.00;98506.66;5091986;28;20040;-79
2022/01/08 00:49:36;;;;;;;1.63;1.27;;;;;;;1.05;100.00;98511.72;5108122;28;20506;-79
2022/01/08 00:52:04;;;;;;;6.05;1.20;;;;;;;1.01;100.00;98504.94;5095859;28;20071;-79
2022/01/08 00:54:30;;;;;;;1.88;1.10;;;;;;;1.00;100.00;98484.53;5109400;27;20548;-79
2022/01/08 00:56:59;;;;;;;2.40;1.17;;;;;;;0.88;100.00;98484.66;5111452;28;20388;-79
2022/01/08 00:59:26;;;;;;;2.97;1.15;;;;;;;0.98;100.00;98498.06;5101980;28;20040;-79
2022/01/08 01:01:52;;;;;;;1.90;1.25;;;;;;;1.03;100.00;98495.78;5095204;28;20522;-79
2022/01/08 01:04:19;;;;;;;1.95;1.20;;;;;;;1.05;100.00;98498.34;5112229;28;20131;-78
2022/01/08 01:06:46;;;;;;;2.40;1.42;;;;;;;0.99;100.00;98501.56;5112650;28;20047;-78
2022/01/08 01:09:13;;;;;;;1.95;0.98;;;;;;;1.11;100.00;98508.47;5094128;28;20051;-79
2022/01/08 01:11:40;;;;;;;0.90;0.90;;;;;;;1.16;100.00;98492.84;5094886;28;20048;-78
2022/01/08 01:14:08;;;;;;;1.88;1.42;;;;;;;1.05;100.00;98472.44;5094406;28;20510;-79
2022/01/08 01:16:35;;;;;;;1.67;1.20;;;;;;;1.13;100.00;98489.59;5094707;28;20048;-78
2022/01/08 01:19:04;;;;;;;1.88;1.27;;;;;;;1.06;100.00;98462.56;5094211;28;20048;-78
2022/01/08 01:21:31;;;;;;;1.85;1.20;;;;;;;1.04;100.00;98465.38;5102696;28;20452;-79
2022/01/08 01:24:05;;;;;;;1.45;0.90;;;;;;;0.99;100.00;98456.06;5104473;28;20132;-79
2022/01/08 01:26:33;;;;;;;2.17;1.25;;;;;;;1.08;100.00;98473.13;5107626;28;20075;-79
2022/01/08 01:29:15;;;;;;;3.60;1.23;;;;;;;1.04;100.00;98460.03;5109691;28;20134;-79
2022/01/08 01:43:05;;;;;;;3.95;1.55;;;;;;;1.16;100.00;98446.47;5110118;28;20067;-79
2022/01/08 01:48:20;;;;;;;7.63;1.60;;;;;;;1.14;100.00;98435.91;5096344;28;20059;-78
2022/01/08 01:50:47;;;;;;;1.88;1.05;;;;;;;1.07;100.00;98405.38;5108889;28;20047;-78
2022/01/08 01:53:14;;;;;;;1.33;1.10;;;;;;;1.14;100.00;98402.94;5104354;28;20106;-79
2022/01/08 01:55:41;;;;;;;1.48;1.05;;;;;;;1.14;100.00;98387.72;5103825;28;20040;-78
2022/01/08 01:58:08;;;;;;;1.52;1.33;;;;;;;1.24;100.00;98391.22;5104588;28;20039;-78
2022/01/08 02:00:35;;;;;;;1.67;1.00;;;;;;;1.24;100.00;98383.19;5112377;28;20070;-79
2022/01/08 02:03:03;;;;;;;1.65;1.02;;;;;;;1.34;100.00;98390.34;5106369;28;20040;-79
2022/01/08 02:05:31;;;;;;;1.40;0.88;;;;;;;1.36;100.00;98381.19;5102120;28;20388;-78
2022/01/08 02:07:58;;;;;;;6.35;1.30;;;;;;;1.38;100.00;98371.16;5099528;27;20052;-79
2022/01/08 02:10:25;;;;;;;1.58;1.17;;;;;;;1.56;100.00;98376.59;5107765;28;20547;-78
2022/01/08 02:12:52;;;;;;;2.67;1.00;;;;;;;1.50;100.00;98362.97;5100397;28;20057;-78
2022/01/08 02:15:19;;;;;;;2.05;0.90;;;;;;;1.46;100.00;98345.47;5093955;28;20059;-79
2022/01/08 02:17:47;;;;;;;2.58;1.23;;;;;;;1.34;100.00;98334.97;5094001;28;20048;-78
2022/01/08 02:20:15;;;;;;;1.88;1.00;;;;;;;1.40;100.00;98321.00;5096428;28;20040;-78
2022/01/08 02:22:42;;;;;;;4.00;1.20;;;;;;;1.46;100.00;98332.09;5093982;28;20040;-78
2022/01/08 02:25:10;;;;;;;1.00;0.82;;;;;;;1.33;100.00;98319.88;5106844;28;20047;-78
2022/01/08 02:27:37;;;;;;;1.73;1.42;;;;;;;1.36;100.00;98306.19;5109646;28;20457;-78
2022/01/08 02:30:05;;;;;;;2.38;1.20;;;;;;;1.37;100.00;98305.22;5093817;28;20063;-78
2022/01/08 02:32:32;;;;;;;1.67;1.00;;;;;;;1.41;100.00;98311.09;5094710;28;20566;-78
2022/01/08 02:34:58;;;;;;;1.20;0.98;;;;;;;1.36;100.00;98300.00;5093978;28;20043;-78
2022/01/08 02:37:30;;;;;;;1.20;0.93;;;;;;;1.42;100.00;98302.09;5095684;28;20428;-78
2022/01/08 02:39:57;;;;;;;1.33;1.02;;;;;;;1.26;100.00;98286.63;5093153;28;20536;-78
2022/01/08 02:42:28;;;;;;;1.70;1.30;;;;;;;1.33;100.00;98284.25;5098330;28;20415;-78
2022/01/08 02:44:55;;;;;;;2.47;1.23;;;;;;;1.34;100.00;98288.59;5108102;27;20141;-78
2022/01/08 02:47:22;;;;;;;1.98;1.05;;;;;;;1.22;100.00;98287.94;5094248;28;20044;-78
2022/01/08 02:49:52;;;;;;;1.73;1.30;;;;;;;1.16;100.00;98276.00;5098259;28;20036;-78
2022/01/08 02:52:20;;;;;;;3.10;1.20;;;;;;;1.27;100.00;98276.78;5101661;28;20151;-78
2022/01/08 02:54:48;;;;;;;2.83;1.20;;;;;;;1.24;100.00;98275.25;5111746;28;20043;-78
2022/01/08 02:57:15;;;;;;;1.30;1.20;;;;;;;1.23;100.00;98269.06;5103995;28;20122;-78
2022/01/08 02:59:42;;;;;;;3.42;1.38;;;;;;;1.22;100.00;98258.50;5111821;28;20047;-78
2022/01/08 03:02:09;;;;;;;2.78;1.40;;;;;;;1.31;100.00;98254.06;5101836;28;20077;-78
2022/01/08 03:04:36;;;;;;;3.10;1.70;;;;;;;1.29;100.00;98245.34;5102338;28;20051;-78
2022/01/08 03:07:03;;;;;;;4.13;1.90;;;;;;;1.46;100.00;98252.59;5099369;28;20067;-78
2022/01/08 03:09:33;;;;;;;4.40;1.52;;;;;;;1.30;100.00;98239.84;5094324;28;20055;-78
2022/01/08 03:12:02;;;;;;;4.10;1.35;;;;;;;1.32;100.00;98231.66;5111450;28;20052;-78
2022/01/08 03:14:29;;;;;;;1.45;1.17;;;;;;;1.24;100.00;98227.06;5100880;28;20578;-79
2022/01/08 03:16:56;;;;;;;4.80;1.30;;;;;;;1.32;100.00;98234.34;5111585;28;20070;-78
2022/01/08 03:19:23;;;;;;;4.30;1.25;;;;;;;1.44;100.00;98229.63;5092368;28;20398;-78
2022/01/08 03:21:53;;;;;;;1.33;0.98;;;;;;;1.28;100.00;98209.69;5091148;28;20540;-78
2022/01/08 03:24:27;;;;;;;3.83;1.13;;;;;;;1.37;100.00;98214.16;5092003;28;20044;-78
2022/01/08 03:26:54;;;;;;;7.72;1.52;;;;;;;1.38;100.00;98231.91;5092520;28;20048;-78
2022/01/08 03:29:22;;;;;;;3.08;1.40;;;;;;;1.36;100.00;98211.63;5090806;28;20055;-78
2022/01/08 03:31:49;;;;;;;4.53;1.20;;;;;;;1.46;100.00;98212.41;5111447;28;20047;-78
2022/01/08 03:34:16;;;;;;;3.38;1.40;;;;;;;1.46;100.00;98201.72;5104737;28;20048;-78
2022/01/08 03:36:43;;;;;;;2.08;1.38;;;;;;;1.40;100.00;98191.56;5095404;28;20415;-78
2022/01/08 03:39:11;;;;;;;2.67;2.47;;;;;;;1.53;100.00;98213.47;5105431;28;20305;-78
2022/01/08 03:41:38;;;;;;;2.33;1.15;;;;;;;1.49;100.00;98208.56;5111577;28;20514;-78
2022/01/08 03:44:06;;;;;;;1.63;1.17;;;;;;;1.58;100.00;98202.31;5112014;28;20052;-77
2022/01/08 03:46:36;;;;;;;1.85;1.10;;;;;;;1.61;100.00;98209.22;5102241;28;20480;-78
2022/01/08 03:49:24;;;;;;;0.90;0.90;;;;;;;1.64;100.00;98201.72;5112028;28;20088;-78
2022/01/08 03:51:52;;;;;;;2.38;1.40;;;;;;;1.58;100.00;98195.13;5105850;28;20223;-77
2022/01/08 03:54:19;;;;;;;1.50;1.08;;;;;;;1.53;100.00;98191.22;5111583;28;20050;-77
2022/01/08 03:56:47;;;;;;;1.58;1.15;;;;;;;1.56;100.00;98188.22;5100010;28;20048;-77
2022/01/08 03:59:14;;;;;;;2.42;1.25;;;;;;;1.55;100.00;98203.47;5094340;28;20062;-78
2022/01/08 04:01:42;;;;;;;2.28;1.05;;;;;;;1.52;100.00;98181.47;5098682;28;20414;-77
2022/01/08 04:04:09;;;;;;;1.83;1.20;;;;;;;1.51;100.00;98193.22;5107005;28;20094;-76
2022/01/08 04:06:37;;;;;;;1.30;0.98;;;;;;;1.47;100.00;98203.38;5101868;28;20036;-77
2022/01/08 04:09:04;;;;;;;6.63;1.77;;;;;;;1.52;100.00;98197.56;5104469;28;20050;-77
2022/01/08 04:11:31;;;;;;;2.00;1.27;;;;;;;1.35;100.00;98172.44;5111044;28;20126;-77
2022/01/08 04:13:57;;;;;;;3.80;1.50;;;;;;;1.23;100.00;98177.16;5092413;28;20056;-77
2022/01/08 04:16:29;;;;;;;2.42;1.35;;;;;;;1.29;100.00;98181.91;5109712;28;20043;-77
2022/01/08 04:18:58;;;;;;;1.98;1.30;;;;;;;1.23;100.00;98180.69;5094554;28;20048;-77
2022/01/08 04:24:12;;;;;;;1.83;1.55;;;;;;;1.24;100.00;98198.44;5092842;28;20503;-78
2022/01/08 04:26:39;;;;;;;4.45;1.67;;;;;;;1.19;100.00;98189.16;5109774;28;20044;-78
2022/01/08 04:29:07;;;;;;;2.97;1.45;;;;;;;1.16;100.00;98190.31;5109522;28;20427;-77
2022/01/08 04:31:34;;;;;;;3.97;1.90;;;;;;;1.26;100.00;98202.81;5111103;28;20043;-77
2022/01/08 04:34:03;;;;;;;2.97;1.52;;;;;;;1.14;100.00;98191.44;5107841;28;20072;-77
2022/01/08 04:36:30;;;;;;;3.22;1.58;;;;;;;1.18;100.00;98209.75;5111907;28;20036;-77
2022/01/08 04:38:56;;;;;;;5.82;1.60;;;;;;;1.14;100.00;98218.22;5104747;28;20051;-77
2022/01/08 04:41:23;;;;;;;4.90;1.95;;;;;;;1.13;100.00;98211.16;5113582;28;20039;-77
2022/01/08 04:43:50;;;;;;;2.05;1.50;;;;;;;1.15;100.00;98210.03;5101135;28;20138;-77
2022/01/08 04:46:17;;;;;;;2.47;1.58;;;;;;;1.21;100.00;98201.41;5095808;28;20040;-77
2022/01/08 04:48:44;;;;;;;1.85;1.58;;;;;;;1.19;100.00;98219.47;5099690;28;20056;-78
2022/01/08 04:51:12;;;;;;;2.30;1.90;;;;;;;1.31;100.00;98235.31;5107427;28;20403;-77
2022/01/08 04:53:39;;;;;;;4.35;1.90;;;;;;;1.33;100.00;98231.50;5105561;28;20398;-77
2022/01/08 04:56:06;;;;;;;2.45;1.80;;;;;;;1.25;100.00;98218.03;5108505;28;20043;-77
2022/01/08 04:58:33;;;;;;;3.30;1.88;;;;;;;1.33;100.00;98252.94;5107008;28;20048;-77
2022/01/08 05:01:00;;;;;;;1.33;1.23;;;;;;;1.23;100.00;98246.78;5105254;28;20050;-77
2022/01/08 05:03:27;;;;;;;2.55;1.90;;;;;;;1.28;100.00;98260.59;5095334;28;20056;-77
2022/01/08 05:05:54;;;;;;;3.05;1.75;;;;;;;1.20;100.00;98247.06;5097005;28;20050;-77
2022/01/08 05:08:22;;;;;;;3.30;1.83;;;;;;;1.09;100.00;98252.63;5098559;28;20101;-77
2022/01/08 05:10:49;;;;;;;3.13;2.05;;;;;;;1.13;100.00;98262.03;5103855;28;20068;-77
2022/01/08 05:13:16;;;;;;;3.35;1.88;;;;;;;1.08;100.00;98254.44;5107918;28;20074;-77
2022/01/08 05:15:43;;;;;;;1.55;1.45;;;;;;;1.11;100.00;98280.91;5114760;27;20479;-77
2022/01/08 05:18:11;;;;;;;5.05;1.90;;;;;;;1.04;100.00;98269.13;5106485;28;20050;-77
2022/01/08 05:20:40;;;;;;;2.72;1.92;;;;;;;1.12;100.00;98304.03;5094463;28;20052;-77
2022/01/08 05:23:07;;;;;;;1.65;1.13;;;;;;;0.87;100.00;98300.16;5094385;28;20048;-78
2022/01/08 05:25:35;;;;;;;3.90;1.55;;;;;;;0.73;100.00;98292.59;5109067;28;20046;-77
2022/01/08 05:28:03;;;;;;;3.35;1.50;;;;;;;0.62;100.00;98290.94;5116373;28;20051;-77
2022/01/08 05:30:30;;;;;;;1.40;1.30;;;;;;;0.65;100.00;98307.53;5105264;28;20050;-77
2022/01/08 05:32:57;;;;;;;1.40;1.20;;;;;;;0.53;100.00;98312.19;5096269;28;20044;-77
2022/01/08 05:35:26;;;;;;;2.95;1.20;;;;;;;0.43;100.00;98291.78;5102697;28;20040;-78
2022/01/08 05:37:53;;;;;;;3.25;1.20;;;;;;;0.43;100.00;98284.59;5104521;28;20052;-77
2022/01/08 05:40:21;;;;;;;1.75;1.27;;;;;;;0.56;100.00;98321.75;5104870;28;20419;-77
2022/01/08 05:42:49;;;;;;;2.80;1.20;;;;;;;0.46;100.00;98321.75;5115765;28;20050;-77
2022/01/08 05:45:16;;;;;;;1.42;1.33;;;;;;;0.59;100.00;98336.66;5114983;28;20052;-78
2022/01/08 05:47:44;;;;;;;1.33;1.13;;;;;;;0.62;100.00;98339.06;5110384;28;20044;-77
2022/01/08 05:50:11;;;;;;;0.70;0.70;;;;;;;0.67;100.00;98336.81;5095561;28;20047;-77
2022/01/08 05:52:38;;;;;;;0.85;0.85;;;;;;;0.70;100.00;98339.19;5099899;28;20052;-77
2022/01/08 05:55:06;;;;;;;0.63;0.60;;;;;;;0.61;100.00;98330.19;5096327;28;20044;-78
2022/01/08 05:57:33;;;;;;;2.78;0.88;;;;;;;0.67;100.00;98345.66;5113109;28;20051;-77
2022/01/08 06:00:02;;;;;;;0.90;0.90;;;;;;;0.78;100.00;98365.25;5106428;28;20059;-77
2022/01/08 06:02:28;;;;;;;1.08;1.00;;;;;;;0.79;100.00;98375.78;5095250;28;20079;-77
2022/01/08 06:04:55;;;;;;;1.08;0.98;;;;;;;0.68;100.00;98362.59;5100379;28;20051;-77
2022/01/08 06:07:22;;;;;;;0.95;0.85;;;;;;;0.66;100.00;98372.56;5110188;28;20048;-77
2022/01/08 06:09:49;;;;;;;1.77;1.02;;;;;;;0.64;100.00;98378.06;5111559;28;20047;-78
2022/01/08 06:12:16;;;;;;;1.00;0.95;;;;;;;0.70;100.00;98414.09;5112278;28;20399;-77
2022/01/08 06:14:43;;;;;;;0.77;0.77;;;;;;;0.66;100.00;98412.69;5110925;28;20051;-77
2022/01/08 06:17:12;;;;;;;0.90;0.90;;;;;;;0.63;100.00;98424.53;5108116;28;20080;-77
2022/01/08 06:19:39;;;;;;;1.02;1.00;;;;;;;0.57;100.00;98418.88;5111669;28;20043;-77
2022/01/08 06:22:06;;;;;;;1.27;1.17;;;;;;;0.47;100.00;98443.78;5095627;28;20048;-77
2022/01/08 06:24:33;;;;;;;0.93;0.93;;;;;;;0.42;100.00;98450.53;5094173;28;20079;-78
2022/01/08 06:26:59;;;;;;;1.52;1.42;;;;;;;0.32;100.00;98440.66;5108291;28;20399;-77
2022/01/08 06:29:27;;;;;;;1.30;1.20;;;;;;;0.29;100.00;98477.53;5107203;28;20049;-77
2022/01/08 06:31:54;;;;;;;1.10;1.10;;;;;;;0.24;100.00;98477.09;5111175;28;20039;-77
2022/01/08 06:34:22;;;;;;;1.00;1.00;;;;;;;0.21;100.00;98488.06;5113356;27;20100;-77
2022/01/08 06:36:49;;;;;;;1.45;1.35;;;;;;;0.09;100.00;98490.84;5113313;28;20039;-77
2022/01/08 06:39:17;;;;;;;3.83;1.00;;;;;;;0.03;100.00;98488.72;5111587;28;20049;-78
2022/01/08 06:41:44;;;;;;;1.73;1.63;;;;;;;0.05;100.00;98500.09;5108605;28;20055;-79
2022/01/08 06:44:11;;;;;;;1.77;1.67;;;;;;;0.14;100.00;98527.84;5093569;28;20060;-77
2022/01/08 06:46:38;;;;;;;1.83;1.63;;;;;;;0.12;100.00;98538.69;5107730;28;20051;-78
2022/01/08 06:49:05;;;;;;;2.88;2.17;;;;;;;0.08;100.00;98526.56;5109339;28;20043;-78
2022/01/08 06:51:33;;;;;;;3.30;2.05;;;;;;;0.03;100.00;98530.59;5102371;28;20054;-78
2022/01/08 06:54:00;;;;;;;3.58;2.42;;;;;;;0.06;100.00;98552.59;5106919;28;20130;-78
2022/01/08 06:56:27;;;;;;;2.58;1.73;;;;;;;0.14;100.00;98568.78;5102558;28;20036;-78
2022/01/08 06:58:55;;;;;;;3.50;2.55;;;;;;;0.13;100.00;98576.94;5095717;28;20051;-78
2022/01/08 07:01:22;;;;;;;3.38;2.53;;;;;;;0.09;100.00;98587.06;5093173;28;20050;-77
2022/01/08 07:03:48;;;;;;;2.63;2.40;;;;;;;0.09;100.00;98586.19;5111134;28;20501;-78
2022/01/08 07:06:15;;;;;;;2.50;2.08;;;;;;;0.11;100.00;98603.81;5092464;28;20066;-78
2022/01/08 07:08:44;;;;;;;4.25;2.95;;;;;;;0.18;100.00;98630.84;5092991;28;20400;-78
2022/01/08 07:11:11;;;;;;;2.30;2.10;;;;;;;0.22;100.00;98634.97;5092047;28;20480;-80
2022/01/08 07:13:38;;;;;;;6.18;2.38;;;;;;;0.20;100.00;98626.22;5092989;28;20052;-79
2022/01/08 07:16:06;;;;;;;3.97;2.00;;;;;;;0.25;100.00;98641.88;5092437;28;20139;-79
2022/01/08 07:18:33;;;;;;;2.10;1.83;;;;;;;0.25;100.00;98652.56;5092765;28;20055;-78
2022/01/08 07:21:00;;;;;;;3.63;1.77;;;;;;;0.17;100.00;98655.91;5102754;28;20067;-79
2022/01/08 07:23:27;;;;;;;4.70;1.92;;;;;;;0.09;100.00;98661.91;5112463;27;20130;-78
2022/01/08 07:25:55;;;;;;;2.70;1.77;;;;;;;0.17;100.00;98686.16;5111266;28;20051;-79
2022/01/08 07:28:22;;;;;;;2.33;1.80;;;;;;;0.15;100.00;98681.91;5097697;28;20054;-78
2022/01/08 07:30:49;;;;;;;2.35;2.15;;;;;;;0.21;100.00;98709.94;5099453;28;20040;-79
2022/01/08 07:33:16;;;;;;;2.17;1.88;;;;;;;0.28;100.00;98711.13;5097907;28;20046;-79
2022/01/08 07:35:43;;;;;;;2.90;2.30;;;;;;;0.11;100.00;98715.25;5106155;28;20047;-79
2022/01/08 07:38:10;;;;;;;3.70;2.78;;;;;;;0.19;100.00;98717.25;5106435;28;20402;-78
2022/01/08 07:40:37;;;;;;;3.25;2.67;;;;;;;0.10;100.00;98714.38;5108057;28;20044;-79
2022/01/08 07:43:06;;;;;;;2.70;2.17;;;;;;;0.22;100.00;98733.88;5108519;28;20077;-78
2022/01/08 07:45:33;;;;;;;2.70;2.40;;;;;;;0.21;100.00;98732.19;5103895;28;20493;-79
2022/01/08 07:48:00;;;;;;;2.28;2.03;;;;;;;0.24;100.00;98753.31;5112021;28;20051;-78
2022/01/08 07:50:27;;;;;;;3.17;2.30;;;;;;;0.25;100.00;98757.69;5102099;28;20052;-78
2022/01/08 07:52:54;;;;;;;2.15;1.95;;;;;;;0.29;100.00;98774.31;5108851;28;20415;-79
2022/01/08 07:55:21;;;;;;;3.78;2.63;;;;;;;0.33;100.00;98784.63;5099976;27;20044;-79
2022/01/08 07:57:48;;;;;;;3.35;2.40;;;;;;;0.15;100.00;98762.97;5092259;28;20059;-79
2022/01/08 08:00:17;;;;;;;5.22;2.30;;;;;;;0.22;100.00;98790.03;5094873;28;20124;-79
2022/01/08 08:02:44;;;;;;;3.13;2.73;;;;;;;0.20;100.00;98799.13;5092080;28;20048;-79
2022/01/08 08:05:12;;;;;;;4.68;2.90;;;;;;;0.21;100.00;98804.38;5092552;28;20669;-79
2022/01/08 08:07:40;;;;;;;3.55;2.95;;;;;;;0.11;100.00;98785.56;5110279;27;20322;-78
2022/01/08 08:10:10;;;;;;;5.65;3.38;;;;;;;0.27;100.00;98805.69;5119243;27;20087;-78
2022/01/08 08:12:37;;;;;;;4.15;3.00;;;;;;;0.21;100.00;98800.84;5107828;28;20439;-78
2022/01/08 08:15:06;;;;;;;5.60;2.35;;;;;;;0.24;100.00;98827.31;5114639;28;20051;-78
2022/01/08 08:17:34;;;;;;;6.03;3.95;;;;;;;0.36;100.00;98831.63;5105747;27;20446;-78
2022/01/08 08:20:02;;;;;;;6.80;3.85;;;;;;;0.33;100.00;98830.09;5109814;27;20052;-78
2022/01/08 08:22:34;;;;;;;6.15;3.50;;;;;;;0.43;100.00;98838.19;5113533;27;20040;-78
2022/01/08 08:25:03;;;;;;;12.80;3.88;;;;;;;0.41;100.00;98837.47;5115554;27;20048;-78
2022/01/08 08:27:30;;;;;;;6.22;4.20;;;;;;;0.36;100.00;98831.63;5109256;27;20043;-78
2022/01/08 08:29:57;;;;;;;6.32;3.72;;;;;;;0.39;100.00;98847.44;5119774;28;20048;-78
2022/01/08 08:32:25;;;;;;;8.25;3.03;;;;;;;0.46;100.00;98848.63;5119439;27;20101;-78
2022/01/08 08:34:54;;;;;;;7.88;2.55;;;;;;;0.44;100.00;98847.06;5108731;28;20079;-78
2022/01/08 08:37:21;;;;;;;4.18;2.67;;;;;;;0.50;100.00;98859.94;5106963;27;20069;-78
2022/01/08 08:39:48;;;;;;;4.82;2.47;;;;;;;0.50;100.00;98843.88;5115468;27;20078;-78
2022/01/08 08:42:15;;;;;;;4.85;2.30;;;;;;;0.48;100.00;98849.38;5117323;27;20048;-78
2022/01/08 08:44:45;;;;;;;2.78;1.88;;;;;;;0.54;100.00;98872.06;5111620;28;20039;-83
2022/01/08 08:47:12;;;;;;;3.13;2.20;;;;;;;0.50;100.00;98868.78;5120315;28;20047;-78
2022/01/08 08:49:42;;;;;;;5.50;1.85;;;;;;;0.60;100.00;98870.69;5111377;27;20063;-78
2022/01/08 08:52:11;;;;;;;1.92;1.70;;;;;;;0.64;100.00;98878.34;5099994;28;20051;-78
2022/01/08 08:54:39;;;;;;;6.15;2.30;;;;;;;0.58;100.00;98857.44;5100230;28;20147;-78
2022/01/08 08:57:06;;;;;;;4.78;2.65;;;;;;;0.73;100.00;98871.38;5098533;28;20040;-78
2022/01/08 08:59:33;;;;;;;3.58;1.70;;;;;;;0.75;100.00;98864.03;5113561;28;20055;-78
2022/01/08 09:02:00;;;;;;;3.63;2.03;;;;;;;0.81;100.00;98886.78;5116445;27;20040;-78
2022/01/08 09:04:27;;;;;;;2.42;1.80;;;;;;;0.73;100.00;98882.06;5098644;28;20048;-78
2022/01/08 09:06:57;;;;;;;3.70;1.90;;;;;;;0.87;100.00;98891.59;5098718;28;20062;-78
2022/01/08 09:09:25;;;;;;;4.88;1.70;;;;;;;0.83;100.00;98882.16;5098431;28;20075;-78
2022/01/08 09:11:52;;;;;;;1.60;1.33;;;;;;;0.92;100.00;98896.56;5098349;28;20043;-78
2022/01/08 09:14:19;;;;;;;2.22;1.40;;;;;;;0.85;100.00;98902.44;5109309;28;20052;-78
2022/01/08 09:16:52;;;;;;;2.50;1.75;;;;;;;0.81;100.00;98902.81;5110192;27;20050;-78
2022/01/08 09:19:20;;;;;;;2.28;1.42;;;;;;;0.87;100.00;98910.34;5115945;28;21699;-78
2022/01/08 09:21:47;;;;;;;4.28;1.55;;;;;;;0.82;100.00;98893.81;5095657;28;20563;-78
2022/01/08 09:24:15;;;;;;;4.60;1.50;;;;;;;1.03;100.00;98913.41;5112068;28;20054;-78
2022/01/08 09:26:44;;;;;;;5.18;2.05;;;;;;;0.97;100.00;98895.19;5110641;28;20044;-78
2022/01/08 09:29:11;;;;;;;5.63;1.80;;;;;;;0.98;100.00;98914.78;5115871;27;20051;-78
2022/01/08 09:31:39;;;;;;;2.40;1.42;;;;;;;0.98;100.00;98915.66;5113381;27;20044;-78
2022/01/08 09:34:06;;;;;;;2.42;1.75;;;;;;;1.01;100.00;98931.44;5103382;28;20050;-79
2022/01/08 09:36:33;;;;;;;6.03;2.10;;;;;;;0.93;100.00;98907.13;5104551;28;20050;-79
2022/01/08 09:39:00;;;;;;;2.42;1.42;;;;;;;1.02;100.00;98922.44;5097218;28;20048;-78
2022/01/08 09:41:28;;;;;;;3.40;1.60;;;;;;;1.14;100.00;98930.41;5098382;28;20044;-78
2022/01/08 09:43:56;;;;;;;4.38;1.58;;;;;;;1.00;100.00;98919.03;5111434;27;20040;-78
2022/01/08 09:46:23;;;;;;;7.63;2.08;;;;;;;0.99;100.00;98913.81;5114262;27;20048;-78
2022/01/08 09:48:50;;;;;;;2.47;1.55;;;;;;;0.99;100.00;98929.88;5113447;28;20050;-78
2022/01/08 09:51:18;;;;;;;4.00;1.80;;;;;;;1.16;100.00;98941.81;5108873;28;20398;-78
2022/01/08 09:53:46;;;;;;;3.40;1.95;;;;;;;1.17;100.00;98943.53;5114931;28;20051;-78
2022/01/08 09:56:13;;;;;;;4.47;2.00;;;;;;;1.10;100.00;98931.63;5105481;28;20123;-78
2022/01/08 09:58:41;;;;;;;4.13;2.10;;;;;;;1.06;100.00;98925.69;5114873;28;20048;-78
2022/01/08 10:01:24;;;;;;;3.38;2.60;;;;;;;1.14;100.00;98939.28;5107292;27;20479;-79
2022/01/08 10:03:51;;;;;;;6.88;2.60;;;;;;;1.25;100.00;98943.72;5108894;28;20062;-78
2022/01/08 10:06:23;;;;;;;8.23;2.40;;;;;;;1.08;100.00;98920.22;5099268;28;20522;-78
2022/01/08 10:08:50;;;;;;;6.78;2.63;;;;;;;1.25;100.00;98930.34;5111346;28;20063;-79
2022/01/08 10:11:19;;;;;;;3.47;2.08;;;;;;;1.38;100.00;98943.53;5095401;28;20480;-78
2022/01/08 10:13:49;;;;;;;6.43;1.90;;;;;;;1.36;100.00;98932.94;5094345;28;20043;-78
2022/01/08 10:19:04;;;;;;;6.88;2.13;;;;;;;1.44;100.00;98944.81;5108367;28;20656;-79
2022/01/08 10:21:34;;;;;;;4.95;2.80;;;;;;;1.58;100.00;98944.47;5101335;28;20040;-79
2022/01/08 10:24:04;;;;;;;7.47;2.22;;;;;;;1.57;100.00;98940.13;5105845;27;20051;-79
2022/01/08 10:26:32;;;;;;;;;;;;;;;1.56;100.00;98954.47;5112094;27;20048;-79
2022/01/08 10:29:01;;;;;;;6.90;2.80;;;;;;;1.66;100.00;98958.06;5112377;28;19928;-79
2022/01/08 10:31:31;;;;;;;3.20;2.00;;;;;;;1.66;100.00;98952.72;5105704;28;20085;-79
2022/01/08 10:34:08;;;;;;;5.80;2.25;;;;;;;1.65;100.00;98939.44;5093914;28;20044;-78
2022/01/08 10:36:37;;;;;;;6.82;2.15;;;;;;;1.65;100.00;98951.00;5093489;28;20534;-78
2022/01/08 10:39:06;;;;;;;3.55;1.60;;;;;;;1.56;100.00;98958.00;5093794;28;20143;-79
2022/01/08 10:41:33;;;;;;;10.63;3.53;;;;;;;1.52;100.00;98940.50;5100803;27;20059;-79
2022/01/08 10:44:09;;;;;;;4.30;2.15;;;;;;;1.50;100.00;98929.06;5112776;28;20055;-78
2022/01/08 10:46:39;;;;;;;7.88;2.67;;;;;;;1.68;100.00;98925.78;5101022;28;20044;-79
2022/01/08 10:49:06;;;;;;;2.45;1.80;;;;;;;1.98;100.00;98948.19;5101433;28;20503;-79
2022/01/08 10:51:38;;;;;;;5.03;2.22;;;;;;;1.94;100.00;98928.81;5097861;28;20127;-79
2022/01/08 10:54:09;;;;;;;3.53;1.85;;;;;;;2.25;100.00;98929.63;5093534;28;20054;-79
2022/01/08 10:56:38;;;;;;;3.20;1.90;;;;;;;2.30;99.83;98935.44;5103993;27;20103;-79
2022/01/08 10:59:15;;;;;;;9.85;2.20;;;;;;;2.22;97.46;98932.59;5112037;28;20051;-79
2022/01/08 11:01:53;;;;;;;3.30;1.70;;;;;;;2.06;95.19;98937.63;5107553;28;20048;-78
2022/01/08 11:04:43;;;;;;;7.00;1.92;;;;;;;2.12;94.85;98942.44;5099665;28;20392;-79
2022/01/08 11:07:11;;;;;;;;;;;;;;;2.25;93.63;98947.56;5107051;27;20044;-79
2022/01/08 11:09:39;;;;;;;4.63;2.03;;;;;;;2.40;95.12;98937.31;5114432;28;20003;-79
2022/01/08 11:12:08;;;;;;;7.18;2.33;;;;;;;2.37;94.91;98919.63;5104816;28;20044;-78
2022/01/08 11:17:32;;;;;;;9.70;4.75;;;;;;;2.48;90.21;98916.84;5105514;28;20504;-78
2022/01/08 11:20:07;;;;;;;5.28;2.05;;;;;;;2.35;87.49;98916.25;5094548;28;20054;-78
2022/01/08 11:22:36;;;;;;;2.10;1.55;;;;;;;2.44;89.13;98912.72;5111902;27;20449;-79
2022/01/08 11:25:06;;;;;;;6.07;2.00;;;;;;;2.48;88.03;98907.91;5106468;28;20475;-79
2022/01/08 11:27:42;;;;;;;8.18;2.22;;;;;;;2.62;92.10;98922.75;5107159;28;20048;-79
2022/01/08 11:30:12;;;;;;;5.47;1.48;;;;;;;2.54;85.27;98901.16;5092654;28;20553;-79
2022/01/08 11:32:42;;;;;;;4.40;1.30;;;;;;;2.60;86.41;98916.69;5107479;28;20055;-79
2022/01/08 11:35:12;;;;;;;4.25;1.48;;;;;;;2.53;85.75;98900.31;5098892;28;20134;-79
2022/01/08 11:37:46;;;;;;;4.97;1.15;;;;;;;2.62;87.94;98891.41;5111866;27;20422;-78
2022/01/08 11:40:15;;;;;;;3.60;1.27;;;;;;;2.68;86.37;98905.25;5107974;27;20105;-79
2022/01/08 11:42:42;;;;;;;6.70;1.50;;;;;;;2.53;85.79;98894.09;5092275;28;20047;-79
2022/01/08 11:45:12;;;;;;;7.45;1.92;;;;;;;2.43;87.65;98875.31;5099526;28;20048;-81
2022/01/08 11:47:46;;;;;;;4.70;2.10;;;;;;;2.37;88.83;98898.16;5108321;28;20039;-79
2022/01/08 11:50:14;;;;;;;4.82;1.27;;;;;;;2.29;87.52;98898.88;5100899;28;20040;-78
2022/01/08 11:52:41;;;;;;;2.00;1.48;;;;;;;2.26;89.38;98896.47;5101707;28;20067;-79
2022/01/08 11:55:08;;;;;;;5.15;1.27;;;;;;;2.31;87.99;98904.09;5107556;28;20483;-79
2022/01/08 11:57:35;;;;;;;7.35;1.45;;;;;;;2.31;86.21;98888.00;5104800;28;20039;-79
2022/01/08 12:00:05;;;;;;;3.72;1.75;;;;;;;2.37;88.15;98894.66;5104429;28;20048;-79